Time;durP1;ratioP1;P1;durP2;ratioP2;P2;SDS_P1;SDS_P2;PMS_P1;PMS_P2;Temp;Humidity;BMP_temperature;BMP_pressure;BME280_temperature;BME280_humidity;BME280_pressure;Samples;Min_cycle;Max_cycle;Signal;HPM_P1;HPM_P2
2022/01/03 00:00:51;;;;;;;;;3.33;1.00;;;;;14.27;63.48;101582.38;5035211;28;45386;-79
2022/01/03 00:03:18;;;;;;;;;6.33;2.33;;;;;14.43;63.15;101618.28;5030047;28;45368;-80
2022/01/03 00:05:43;;;;;;;;;3.00;1.33;;;;;14.25;63.05;101582.44;5055797;28;45597;-80
2022/01/03 00:08:09;;;;;;;;;3.67;2.00;;;;;14.22;63.32;101577.22;5023231;28;47292;-80
2022/01/03 00:10:35;;;;;;;;;4.00;3.00;;;;;14.40;63.29;101612.16;5046393;28;45544;-80
2022/01/03 00:13:03;;;;;;;;;2.67;2.00;;;;;14.11;63.29;101547.34;5055632;28;45584;-80
2022/01/03 00:15:29;;;;;;;;;4.00;2.00;;;;;14.37;63.42;101591.72;5039162;28;45607;-80
2022/01/03 00:17:54;;;;;;;;;3.00;2.67;;;;;14.19;63.19;101569.31;5055109;28;45512;-80
2022/01/03 00:20:21;;;;;;;;;6.33;2.00;;;;;14.32;63.27;101605.34;5054897;28;45484;-80
2022/01/03 00:23:01;;;;;;;;;3.67;2.00;;;;;14.02;63.17;101547.75;5055285;28;45472;-80
2022/01/03 00:25:27;;;;;;;;;2.33;2.33;;;;;13.97;62.75;101558.69;5025232;28;45532;-80
2022/01/03 00:28:09;;;;;;;;;4.00;3.33;;;;;14.32;63.10;101620.56;5014247;28;46118;-80
2022/01/03 00:30:37;;;;;;;;;2.00;1.00;;;;;14.28;63.61;101619.84;5014662;28;45527;-80
2022/01/03 00:33:05;;;;;;;;;3.00;1.00;;;;;14.29;63.44;101620.72;5014573;28;45417;-80
2022/01/03 00:35:35;;;;;;;;;1.33;1.00;;;;;14.00;63.43;101584.47;5007796;28;45448;-80
2022/01/03 00:38:00;;;;;;;;;4.00;2.00;;;;;14.09;63.81;101590.31;4998096;28;47203;-80
2022/01/03 00:40:27;;;;;;;;;2.00;2.00;;;;;14.32;63.28;101647.38;5013445;28;45811;-79
2022/01/03 00:42:52;;;;;;;;;1.33;0.00;;;;;14.31;63.34;101638.47;5014144;28;45411;-80
2022/01/03 00:45:18;;;;;;;;;6.00;3.00;;;;;14.32;63.52;101633.97;5014891;28;45459;-79
2022/01/03 00:47:45;;;;;;;;;3.67;2.33;;;;;14.31;63.37;101632.25;5014516;28;46376;-80
2022/01/03 00:50:15;;;;;;;;;5.00;2.33;;;;;14.27;63.37;101626.13;5014464;28;45426;-80
2022/01/03 00:52:41;;;;;;;;;4.00;2.00;;;;;14.18;63.31;101614.97;5014644;28;45319;-79
2022/01/03 00:55:07;;;;;;;;;3.33;1.67;;;;;14.18;63.53;101617.63;5002388;28;45635;-80
2022/01/03 00:57:55;;;;;;;;;3.33;2.00;;;;;14.16;63.69;101617.69;5008025;28;46266;-79
2022/01/03 01:00:21;;;;;;;;;4.00;2.00;;;;;14.18;63.44;101615.81;4994590;28;45449;-79
2022/01/03 01:02:56;;;;;;;;;3.67;2.00;;;;;14.12;63.60;101606.25;5005283;28;45647;-79
2022/01/03 01:05:23;;;;;;;;;3.00;0.00;;;;;14.23;63.55;101629.03;5014285;28;45569;-79
2022/01/03 01:07:55;;;;;;;;;7.67;3.67;;;;;14.27;63.50;101642.22;5013489;28;45359;-79
2022/01/03 01:10:21;;;;;;;;;8.33;1.00;;;;;14.30;63.76;101641.22;5013396;28;45461;-79
2022/01/03 01:12:47;;;;;;;;;1.33;1.33;;;;;14.22;63.61;101628.16;5006835;28;45327;-79
2022/01/03 01:15:14;;;;;;;;;3.67;3.67;;;;;14.27;63.62;101636.00;4994371;28;45364;-80
2022/01/03 01:17:40;;;;;;;;;2.00;1.00;;;;;14.06;63.82;101606.53;4994016;28;46150;-80
2022/01/03 01:20:06;;;;;;;;;2.67;2.33;;;;;14.14;63.72;101622.25;4993692;28;45563;-78
2022/01/03 01:22:32;;;;;;;;;5.00;2.00;;;;;14.21;63.44;101621.06;4992904;28;45432;-80
2022/01/03 01:25:24;;;;;;;;;2.33;1.67;;;;;13.98;63.72;101589.94;4994042;28;45654;-80
2022/01/03 01:27:47;;;;;;;;;3.33;2.67;;;;;14.26;63.86;101626.22;4993031;28;45452;-78
2022/01/03 01:30:14;;;;;;;;;1.00;1.00;;;;;14.25;64.07;101628.00;4993321;28;45732;-78
2022/01/03 01:32:50;;;;;;;;;3.00;2.67;;;;;14.11;63.91;101591.09;4996141;28;45284;-80
2022/01/03 01:35:19;;;;;;;;;8.00;3.00;;;;;14.25;63.73;101625.34;4996987;28;45547;-81
2022/01/03 01:37:48;;;;;;;;;4.00;2.67;;;;;14.22;63.67;101612.06;4996434;28;46188;-78
2022/01/03 01:40:14;;;;;;;;;1.67;1.67;;;;;14.23;63.93;101615.63;4996234;28;45424;-78
2022/01/03 01:42:45;;;;;;;;;0.33;0.33;;;;;14.15;63.84;101621.34;4995952;28;45447;-78
2022/01/03 01:45:11;;;;;;;;;1.33;1.33;;;;;14.21;63.81;101629.13;4997142;28;45386;-78
2022/01/03 01:47:40;;;;;;;;;4.00;4.00;;;;;13.83;63.76;101561.97;4996645;28;46032;-78
2022/01/03 01:50:07;;;;;;;;;2.67;2.00;;;;;14.17;64.06;101608.72;4996008;28;45306;-79
2022/01/03 01:52:36;;;;;;;;;1.00;1.00;;;;;13.97;63.88;101571.22;4997158;28;45415;-80
2022/01/03 01:55:08;;;;;;;;;6.33;2.00;;;;;14.05;64.15;101610.16;4996203;28;45512;-78
2022/01/03 01:57:58;;;;;;;;;2.33;1.33;;;;;14.08;64.16;101607.31;4995409;28;48566;-78
2022/01/03 02:00:25;;;;;;;;;5.67;2.00;;;;;14.07;64.23;101602.91;4996572;28;45380;-78
2022/01/03 02:03:13;;;;;;;;;1.00;1.00;;;;;14.05;64.09;101599.44;4996638;28;45290;-78
2022/01/03 02:05:43;;;;;;;;;3.67;2.67;;;;;14.04;64.26;101612.91;4996937;28;45497;-79
2022/01/03 02:08:27;;;;;;;;;7.67;2.00;;;;;13.82;64.51;101578.13;5007730;28;45509;-78
2022/01/03 02:11:01;;;;;;;;;3.67;3.33;;;;;13.82;64.32;101587.03;5014689;28;46051;-78
2022/01/03 02:13:27;;;;;;;;;2.67;2.00;;;;;13.78;64.70;101588.09;5015041;28;45430;-79
2022/01/03 02:16:03;;;;;;;;;5.33;2.67;;;;;13.97;64.51;101622.16;5016499;28;45807;-80
2022/01/03 02:18:29;;;;;;;;;2.00;2.00;;;;;13.98;64.44;101614.03;5016423;28;46391;-80
2022/01/03 02:20:54;;;;;;;;;2.00;2.00;;;;;13.89;64.54;101601.91;4996655;28;45498;-80
2022/01/03 02:23:19;;;;;;;;;3.00;1.00;;;;;13.84;64.68;101593.22;5014457;28;46644;-80
2022/01/03 02:25:45;;;;;;;;;2.33;1.33;;;;;13.71;64.49;101567.88;5016067;28;45401;-80
2022/01/03 02:28:11;;;;;;;;;2.00;2.00;;;;;13.70;64.62;101584.91;5016159;28;46108;-80
2022/01/03 02:30:36;;;;;;;;;1.00;1.00;;;;;13.85;64.66;101602.13;5016300;28;45424;-80
2022/01/03 02:33:03;;;;;;;;;6.00;2.67;;;;;13.81;64.72;101603.19;5015175;28;45484;-80
2022/01/03 02:35:29;;;;;;;;;3.33;1.67;;;;;13.76;64.70;101605.19;5008415;28;45561;-80
2022/01/03 02:37:55;;;;;;;;;1.67;1.67;;;;;13.66;64.67;101589.50;4976732;28;45523;-80
2022/01/03 02:40:22;;;;;;;;;3.67;2.00;;;;;13.92;64.65;101633.94;4976109;28;45523;-80
2022/01/03 02:42:48;;;;;;;;;2.67;1.33;;;;;13.70;64.62;101593.81;4976251;28;45465;-80
2022/01/03 02:45:23;;;;;;;;;5.67;2.67;;;;;13.79;64.96;101603.25;5006141;28;45483;-80
2022/01/03 02:47:52;;;;;;;;;6.00;1.00;;;;;13.80;64.44;101585.38;5015786;28;46097;-80
2022/01/03 02:50:20;;;;;;;;;2.00;1.00;;;;;13.78;64.67;101584.56;5014661;28;45452;-80
2022/01/03 02:52:46;;;;;;;;;1.67;1.67;;;;;13.91;64.77;101623.28;5015775;28;45422;-79
2022/01/03 02:55:13;;;;;;;;;2.33;2.00;;;;;13.75;64.66;101598.09;5016342;28;45696;-80
2022/01/03 02:57:47;;;;;;;;;2.67;2.67;;;;;13.90;64.98;101616.19;5015596;28;45482;-79
2022/01/03 03:00:25;;;;;;;;;3.00;2.67;;;;;13.88;64.96;101626.09;5015859;28;45413;-80
2022/01/03 03:02:51;;;;;;;;;1.00;1.00;;;;;13.86;64.77;101614.56;5015176;28;45402;-80
2022/01/03 03:05:17;;;;;;;;;7.00;2.67;;;;;13.67;64.98;101580.56;4996184;28;45660;-80
2022/01/03 03:07:43;;;;;;;;;3.00;2.00;;;;;13.77;65.02;101582.84;4994201;28;47045;-80
2022/01/03 03:10:11;;;;;;;;;8.33;1.00;;;;;13.84;64.94;101592.34;5011238;28;45446;-80
2022/01/03 03:12:37;;;;;;;;;2.00;1.00;;;;;13.61;65.44;101547.78;4995932;28;45358;-80
2022/01/03 03:15:05;;;;;;;;;2.00;2.00;;;;;13.82;65.20;101570.09;5005171;28;45701;-80
2022/01/03 03:17:30;;;;;;;;;4.67;2.00;;;;;13.75;65.12;101557.91;5015415;28;45397;-80
2022/01/03 03:19:59;;;;;;;;;3.00;1.67;;;;;13.86;65.36;101585.06;5014408;28;45401;-80
2022/01/03 03:22:26;;;;;;;;;3.00;1.67;;;;;13.84;64.99;101586.97;4995501;28;45589;-80
2022/01/03 03:25:00;;;;;;;;;2.00;2.00;;;;;13.81;64.94;101579.06;4995997;28;45357;-81
2022/01/03 03:27:25;;;;;;;;;3.00;2.00;;;;;13.83;64.87;101580.72;4995626;28;45635;-80
2022/01/03 03:29:51;;;;;;;;;3.33;2.00;;;;;13.85;65.18;101580.66;4995471;28;45423;-80
2022/01/03 03:32:18;;;;;;;;;6.33;2.00;;;;;13.86;65.05;101582.41;4995863;28;45440;-80
2022/01/03 03:34:46;;;;;;;;;7.00;2.00;;;;;13.87;65.05;101576.13;4994546;28;45625;-80
2022/01/03 03:37:12;;;;;;;;;2.00;0.67;;;;;13.83;65.19;101577.19;4995299;28;46279;-80
2022/01/03 03:39:39;;;;;;;;;3.00;2.00;;;;;13.80;64.83;101569.28;4995147;28;45841;-81
2022/01/03 03:42:06;;;;;;;;;3.33;1.33;;;;;13.81;64.81;101565.66;4995775;28;45821;-80
2022/01/03 03:44:32;;;;;;;;;1.00;1.00;;;;;13.93;64.96;101582.09;4996015;28;45376;-87
2022/01/03 03:46:58;;;;;;;;;5.33;3.00;;;;;13.65;64.96;101520.81;4994628;28;46283;-87
2022/01/03 03:49:23;;;;;;;;;4.00;2.00;;;;;13.96;64.15;101573.03;4996159;28;45210;-81
2022/01/03 03:51:48;;;;;;;;;2.00;2.00;;;;;13.47;64.56;101493.00;4994982;28;45535;-81
2022/01/03 03:54:14;;;;;;;;;4.00;4.00;;;;;13.97;64.50;101565.84;4994885;28;45298;-81
2022/01/03 03:56:39;;;;;;;;;2.33;1.00;;;;;13.91;64.48;101564.34;5006196;28;45380;-81
2022/01/03 03:59:04;;;;;;;;;3.00;1.67;;;;;13.97;64.58;101561.38;5015405;28;45457;-78
2022/01/03 04:01:30;;;;;;;;;2.67;2.33;;;;;14.01;64.28;101568.34;5014923;28;45330;-81
2022/01/03 04:03:55;;;;;;;;;2.00;2.00;;;;;14.00;64.26;101557.66;5015538;28;45329;-81
2022/01/03 04:06:21;;;;;;;;;3.00;2.00;;;;;13.99;63.95;101553.25;5013390;28;46995;-80
2022/01/03 04:08:46;;;;;;;;;5.67;2.00;;;;;14.00;64.23;101545.16;5014729;28;45396;-80
2022/01/03 04:11:15;;;;;;;;;0.67;0.67;;;;;13.67;64.40;101500.19;5014028;28;45696;-81
2022/01/03 04:13:41;;;;;;;;;4.00;2.00;;;;;14.00;64.34;101555.00;5014466;28;45450;-81
2022/01/03 04:16:07;;;;;;;;;2.67;1.33;;;;;14.01;64.30;101562.09;5014269;28;46367;-81
2022/01/03 04:18:33;;;;;;;;;1.67;1.67;;;;;13.97;64.22;101550.63;5014449;28;45250;-80
2022/01/03 04:20:59;;;;;;;;;2.67;2.00;;;;;14.00;64.09;101539.81;5014432;28;45563;-80
2022/01/03 04:23:24;;;;;;;;;1.67;1.33;;;;;13.99;64.08;101535.38;5014927;28;45621;-81
2022/01/03 04:25:53;;;;;;;;;5.67;3.00;;;;;13.97;64.12;101528.34;5012791;27;45414;-81
2022/01/03 04:28:19;;;;;;;;;2.67;1.67;;;;;13.55;64.30;101463.22;4991803;28;45465;-81
2022/01/03 04:30:44;;;;;;;;;4.00;1.00;;;;;13.94;64.28;101524.84;4994748;28;45522;-81
2022/01/03 04:33:10;;;;;;;;;1.00;1.00;;;;;13.73;64.12;101491.84;4989301;28;45977;-81
2022/01/03 04:35:36;;;;;;;;;2.33;2.33;;;;;13.79;64.12;101492.50;4989182;28;46723;-80
2022/01/03 04:38:02;;;;;;;;;2.00;2.00;;;;;13.90;64.17;101514.34;4988818;27;45333;-83
2022/01/03 04:40:28;;;;;;;;;2.00;2.00;;;;;13.57;64.05;101460.47;4989133;28;45499;-82
2022/01/03 04:42:53;;;;;;;;;1.33;1.00;;;;;13.94;64.34;101516.81;4994846;28;45358;-80
2022/01/03 04:45:18;;;;;;;;;2.67;2.67;;;;;13.87;64.00;101504.63;4985563;28;45426;-80
2022/01/03 04:47:44;;;;;;;;;3.33;2.00;;;;;13.61;63.99;101473.66;4973171;28;45720;-81
2022/01/03 04:50:09;;;;;;;;;1.00;1.00;;;;;13.86;64.54;101513.63;4982718;27;45371;-81
2022/01/03 04:52:35;;;;;;;;;8.33;2.00;;;;;13.55;64.47;101454.31;4988011;28;45498;-80
2022/01/03 04:55:01;;;;;;;;;2.67;1.00;;;;;13.87;64.16;101510.00;4984276;28;45449;-81
2022/01/03 04:57:27;;;;;;;;;4.33;3.00;;;;;13.88;64.38;101518.91;4984488;27;45694;-80
2022/01/03 04:59:52;;;;;;;;;5.00;3.00;;;;;13.68;64.45;101474.25;4981658;28;45520;-80
2022/01/03 05:02:17;;;;;;;;;1.67;1.67;;;;;13.42;64.37;101433.44;4987275;28;45710;-83
2022/01/03 05:04:43;;;;;;;;;0.00;0.00;;;;;13.87;64.33;101510.00;4992865;28;45759;-84
2022/01/03 05:07:09;;;;;;;;;2.67;1.00;;;;;13.66;64.42;101476.13;4994099;28;48382;-83
2022/01/03 05:09:34;;;;;;;;;3.33;2.00;;;;;13.42;64.51;101427.22;4993986;28;45620;-83
2022/01/03 05:11:59;;;;;;;;;9.67;1.00;;;;;13.73;64.44;101478.47;5008762;28;45613;-81
2022/01/03 05:14:25;;;;;;;;;5.33;2.33;;;;;13.85;64.66;101508.31;4994007;28;46527;-80
2022/01/03 05:16:52;;;;;;;;;1.67;0.00;;;;;13.86;64.43;101504.69;5008356;28;45316;-81
2022/01/03 05:19:17;;;;;;;;;3.00;1.00;;;;;13.86;64.52;101505.59;5008637;28;45498;-81
2022/01/03 05:21:42;;;;;;;;;1.33;1.33;;;;;13.89;64.68;101501.91;4991466;28;45401;-81
2022/01/03 05:24:08;;;;;;;;;2.33;1.00;;;;;13.78;64.14;101480.94;4991817;28;45562;-81
2022/01/03 05:26:33;;;;;;;;;4.67;1.33;;;;;13.93;64.20;101498.13;4994209;28;45373;-81
2022/01/03 05:28:58;;;;;;;;;2.00;2.00;;;;;13.60;63.94;101453.19;4992582;28;45302;-81
2022/01/03 05:31:24;;;;;;;;;4.33;2.00;;;;;13.91;64.61;101502.69;4993082;28;45493;-82
2022/01/03 05:33:49;;;;;;;;;3.00;1.00;;;;;13.90;64.37;101515.19;4973556;28;46656;-81
2022/01/03 05:36:15;;;;;;;;;3.00;3.00;;;;;13.72;64.80;101479.41;4983856;28;45469;-80
2022/01/03 05:38:40;;;;;;;;;3.00;1.00;;;;;13.69;64.60;101467.94;4991479;27;45545;-80
2022/01/03 05:41:07;;;;;;;;;2.67;2.67;;;;;13.86;64.42;101496.66;4988860;28;45598;-78
2022/01/03 05:43:32;;;;;;;;;5.00;2.33;;;;;13.83;64.41;101499.47;4984059;28;46048;-78
2022/01/03 05:45:58;;;;;;;;;5.33;3.00;;;;;13.71;64.80;101484.81;4991681;28;45620;-79
2022/01/03 05:48:23;;;;;;;;;2.00;2.00;;;;;13.81;64.53;101493.31;4984918;28;45394;-78
2022/01/03 05:50:48;;;;;;;;;1.00;1.00;;;;;13.69;64.70;101462.59;4974220;28;45405;-79
2022/01/03 05:53:14;;;;;;;;;4.00;1.00;;;;;13.76;64.64;101479.25;4986210;28;53410;-79
2022/01/03 05:55:39;;;;;;;;;5.00;2.00;;;;;13.91;64.89;101506.25;4993523;28;45787;-79
2022/01/03 05:58:04;;;;;;;;;2.00;2.00;;;;;13.74;64.79;101482.00;5013152;28;45526;-79
2022/01/03 06:00:30;;;;;;;;;2.00;0.00;;;;;13.92;64.49;101499.06;5008625;27;45514;-80
2022/01/03 06:02:58;;;;;;;;;10.00;2.00;;;;;13.94;64.60;101510.59;4996923;28;48167;-79
2022/01/03 06:05:52;;;;;;;;;4.00;1.00;;;;;13.89;64.66;101502.75;4995699;28;45884;-80
2022/01/03 06:08:18;;;;;;;;;1.00;1.00;;;;;13.67;64.69;101464.47;4993223;27;45454;-82
2022/01/03 06:10:43;;;;;;;;;1.00;1.00;;;;;13.95;64.87;101493.56;5008186;28;45603;-82
2022/01/03 06:13:08;;;;;;;;;3.67;1.00;;;;;13.69;64.83;101460.78;4995853;28;45416;-81
2022/01/03 06:15:37;;;;;;;;;1.00;1.00;;;;;13.99;64.76;101505.03;4996121;28;45396;-81
2022/01/03 06:18:03;;;;;;;;;2.00;1.00;;;;;13.98;64.44;101509.50;4991904;28;45420;-81
2022/01/03 06:20:29;;;;;;;;;5.33;2.00;;;;;13.76;64.51;101474.75;4983005;28;45554;-81
2022/01/03 06:22:55;;;;;;;;;2.67;2.00;;;;;13.97;64.87;101512.25;4992196;28;46015;-83
2022/01/03 06:25:20;;;;;;;;;1.67;1.00;;;;;13.96;64.74;101503.34;4998357;28;45559;-80
2022/01/03 06:27:55;;;;;;;;;3.00;3.00;;;;;13.87;64.66;101485.88;4996440;27;45884;-81
2022/01/03 06:30:21;;;;;;;;;6.00;2.00;;;;;13.97;64.86;101488.13;4997796;27;45486;-82
2022/01/03 06:32:47;;;;;;;;;5.33;2.33;;;;;13.87;65.00;101480.50;4988266;28;46464;-83
2022/01/03 06:35:12;;;;;;;;;2.67;2.00;;;;;13.92;65.05;101499.06;4992520;28;45633;-80
2022/01/03 06:37:37;;;;;;;;;2.67;0.67;;;;;13.91;65.10;101486.63;4988968;28;45865;-79
2022/01/03 06:40:04;;;;;;;;;3.00;2.00;;;;;13.96;64.80;101475.69;4983248;28;45415;-79
2022/01/03 06:42:30;;;;;;;;;4.33;2.67;;;;;13.69;64.47;101431.31;4994719;28;45623;-81
2022/01/03 06:44:55;;;;;;;;;4.67;2.00;;;;;13.73;65.13;101448.13;5000196;28;46518;-84
2022/01/03 06:47:21;;;;;;;;;2.33;2.33;;;;;13.96;65.28;101473.00;4996493;28;45328;-83
2022/01/03 06:49:46;;;;;;;;;2.67;2.67;;;;;13.51;64.93;101394.69;5016467;28;45338;-83
2022/01/03 06:52:12;;;;;;;;;4.67;2.00;;;;;13.51;64.87;101400.03;5014658;28;47433;-83
2022/01/03 06:54:38;;;;;;;;;1.00;1.00;;;;;13.77;64.77;101443.50;5016051;28;45497;-82
2022/01/03 06:57:03;;;;;;;;;7.00;2.33;;;;;13.66;64.64;101425.22;5008931;28;45608;-82
2022/01/03 06:59:29;;;;;;;;;7.00;1.67;;;;;13.74;64.62;101439.13;4995825;28;45458;-83
2022/01/03 07:01:55;;;;;;;;;1.00;1.00;;;;;13.91;64.97;101459.81;4996209;28;45447;-82
2022/01/03 07:04:21;;;;;;;;;3.00;2.00;;;;;13.90;64.91;101453.56;4995808;28;45541;-85
2022/01/03 07:06:46;;;;;;;;;4.00;2.00;;;;;13.91;64.70;101441.91;4996454;28;45470;-84
2022/01/03 07:09:12;;;;;;;;;2.00;1.00;;;;;13.73;64.93;101399.91;5013353;28;45607;-84
2022/01/03 07:11:37;;;;;;;;;3.00;2.33;;;;;13.54;64.80;101351.66;5015989;28;45961;-85
2022/01/03 07:19:48;;;;;;;;;8.67;3.00;;;;;14.26;63.93;101428.66;4941350;28;45582;-84
2022/01/03 07:22:14;;;;;;;;;1.67;1.67;;;;;14.20;63.84;101420.03;4935433;28;45538;-84
2022/01/03 07:24:40;;;;;;;;;3.00;3.00;;;;;14.48;63.57;101467.84;4935165;28;45366;-84
2022/01/03 07:27:08;;;;;;;;;1.33;1.00;;;;;14.15;63.79;101407.72;4935563;28;45560;-84
2022/01/03 07:29:34;;;;;;;;;5.00;2.00;;;;;14.34;63.58;101428.28;4935304;28;45324;-84
2022/01/03 07:32:00;;;;;;;;;2.67;1.33;;;;;14.54;63.46;101468.47;4935713;28;46348;-84
2022/01/03 07:34:26;;;;;;;;;1.67;1.00;;;;;14.54;63.46;101454.19;4919370;28;45365;-84
2022/01/03 07:36:51;;;;;;;;;3.33;2.00;;;;;14.56;63.55;101447.78;4935617;28;45340;-84
2022/01/03 07:39:17;;;;;;;;;3.00;2.33;;;;;14.57;63.44;101441.47;4970044;28;45833;-84
2022/01/03 07:41:43;;;;;;;;;4.00;2.00;;;;;14.41;63.88;101404.72;4963222;28;48105;-84
2022/01/03 07:44:08;;;;;;;;;5.67;1.67;;;;;14.24;63.32;101378.75;5036305;28;45481;-83
2022/01/03 07:46:33;;;;;;;;;3.67;2.00;;;;;14.62;62.90;101443.94;5036155;28;45350;-81
2022/01/03 07:48:59;;;;;;;;;3.00;2.67;;;;;14.52;63.20;101434.56;4956004;28;45509;-81
2022/01/03 07:51:24;;;;;;;;;5.33;3.00;;;;;14.39;63.31;101423.56;4936814;28;46431;-81
2022/01/03 07:53:50;;;;;;;;;2.33;2.33;;;;;14.18;63.51;101392.44;4975166;28;45436;-81
2022/01/03 07:56:18;;;;;;;;;2.00;2.00;;;;;14.24;63.76;101413.59;4994377;28;45633;-81
2022/01/03 07:58:43;;;;;;;;;7.00;1.00;;;;;13.55;63.60;101289.13;4998893;28;45579;-87
2022/01/03 08:01:09;;;;;;;;;3.00;2.00;;;;;14.26;63.74;101425.13;4994238;28;45623;-87
2022/01/03 08:03:34;;;;;;;;;4.33;1.67;;;;;14.34;63.74;101426.47;5001376;28;45759;-88
2022/01/03 08:05:59;;;;;;;;;2.67;2.67;;;;;14.09;63.90;101389.28;4995492;28;45567;-86
2022/01/03 08:08:25;;;;;;;;;1.67;1.67;;;;;14.23;64.04;101409.16;5001178;28;45564;-88
2022/01/03 08:10:50;;;;;;;;;6.00;2.00;;;;;14.26;63.97;101404.53;4996763;28;45468;-89
2022/01/03 08:13:16;;;;;;;;;2.00;2.00;;;;;14.05;63.94;101368.03;4999671;28;50553;-90
2022/01/03 08:15:42;;;;;;;;;4.67;3.67;;;;;14.34;64.08;101422.91;5000945;28;45443;-90
2022/01/03 08:18:08;;;;;;;;;3.00;1.67;;;;;14.36;63.96;101421.03;4995035;28;45740;-89
2022/01/03 08:20:34;;;;;;;;;2.00;2.00;;;;;14.37;63.82;101433.50;4994976;28;45503;-90
2022/01/03 08:22:59;;;;;;;;;5.00;3.00;;;;;14.24;64.29;101413.59;4998347;28;45399;-88
2022/01/03 08:25:24;;;;;;;;;5.33;4.00;;;;;14.17;64.57;101410.34;4996064;28;45443;-89
2022/01/03 08:27:50;;;;;;;;;5.67;2.67;;;;;14.09;64.51;101377.66;5000924;28;45586;-86
2022/01/03 08:30:16;;;;;;;;;4.00;2.00;;;;;14.31;64.35;101412.34;4994621;28;46333;-89
2022/01/03 08:32:41;;;;;;;;;4.00;2.00;;;;;13.89;64.47;101344.66;4994244;28;45519;-89
2022/01/03 08:35:07;;;;;;;;;2.33;1.67;;;;;14.02;64.56;101376.22;4995411;28;45492;-88
2022/01/03 08:37:33;;;;;;;;;4.00;2.33;;;;;14.12;64.82;101383.75;4997141;28;45581;-88
2022/01/03 08:40:03;;;;;;;;;2.00;1.00;;;;;14.20;65.01;101402.13;4992367;28;45469;-88
2022/01/03 08:42:28;;;;;;;;;2.00;2.00;;;;;13.78;64.85;101336.25;4993058;28;45312;-87
2022/01/03 08:44:54;;;;;;;;;7.67;3.00;;;;;13.42;65.51;101320.97;5004405;28;45636;-86
2022/01/03 08:47:19;;;;;;;;;2.33;1.00;;;;;13.81;65.96;101395.03;4998633;28;45677;-86
2022/01/03 08:49:44;;;;;;;;;4.00;2.00;;;;;13.44;65.90;101339.66;5006198;28;47314;-86
2022/01/03 08:52:10;;;;;;;;;1.67;1.67;;;;;13.35;66.73;101354.31;4999761;28;50678;-85
2022/01/03 08:54:35;;;;;;;;;13.67;13.67;;;;;13.59;66.63;101344.28;4999958;28;45422;-82
2022/01/03 08:57:01;;;;;;;;;8.67;3.00;;;;;13.87;66.21;101384.03;4994810;27;45613;-83
2022/01/03 08:59:26;;;;;;;;;6.33;3.00;;;;;13.93;66.33;101386.44;5006098;28;45878;-84
2022/01/03 09:01:51;;;;;;;;;2.00;1.00;;;;;13.64;65.79;101341.38;5000231;28;45460;-84
2022/01/03 09:04:17;;;;;;;;;4.67;2.00;;;;;13.73;66.35;101357.03;5000766;28;45260;-84
2022/01/03 09:06:42;;;;;;;;;5.00;4.00;;;;;13.85;66.21;101372.53;5006648;28;45633;-84
2022/01/03 09:09:08;;;;;;;;;5.33;1.67;;;;;13.65;65.93;101335.09;5002148;28;45304;-84
2022/01/03 09:11:33;;;;;;;;;3.67;2.67;;;;;13.99;66.01;101393.31;5003250;28;45374;-84
2022/01/03 09:13:58;;;;;;;;;7.33;4.00;;;;;13.72;66.02;101348.13;5008683;28;45478;-84
2022/01/03 09:16:24;;;;;;;;;1.00;1.00;;;;;13.99;65.91;101392.44;5004438;28;45415;-84
2022/01/03 09:18:49;;;;;;;;;1.00;1.00;;;;;13.80;66.27;101358.47;5001215;28;45455;-84
2022/01/03 09:21:15;;;;;;;;;6.00;1.00;;;;;13.86;66.20;101378.75;5002826;28;45339;-84
2022/01/03 09:23:46;;;;;;;;;9.00;2.00;;;;;13.92;66.31;101383.81;4999351;28;45345;-85
2022/01/03 09:28:58;;;;;;;;;3.00;2.33;;;;;13.93;66.55;101388.25;4997170;28;45691;-84
2022/01/03 09:31:29;;;;;;;;;4.00;2.67;;;;;13.54;66.73;101334.75;5002828;28;45597;-83
2022/01/03 09:33:58;;;;;;;;;1.33;1.33;;;;;13.93;66.73;101393.63;5002813;28;45510;-83
2022/01/03 09:36:25;;;;;;;;;2.00;2.00;;;;;13.84;66.87;101377.97;4997303;28;45394;-83
2022/01/03 09:38:50;;;;;;;;;3.00;2.00;;;;;13.68;66.99;101348.34;5001387;28;45445;-82
2022/01/03 09:41:22;;;;;;;;;6.67;2.67;;;;;13.85;67.25;101380.56;5000819;28;45482;-82
2022/01/03 09:43:50;;;;;;;;;5.67;1.67;;;;;13.87;67.38;101383.19;4996845;28;45534;-84
2022/01/03 09:46:20;;;;;;;;;3.00;2.33;;;;;13.71;67.17;101361.59;4992617;28;45595;-83
2022/01/03 09:48:52;;;;;;;;;1.33;1.00;;;;;13.76;67.15;101364.91;5006651;28;46146;-83
2022/01/03 09:51:22;;;;;;;;;1.33;0.67;;;;;13.82;67.07;101361.97;5002660;28;45294;-83
2022/01/03 09:53:49;;;;;;;;;5.67;1.00;;;;;13.77;66.93;101366.69;5006862;28;45491;-84
2022/01/03 09:56:16;;;;;;;;;1.33;1.00;;;;;13.97;67.11;101402.38;5003618;28;45590;-85
2022/01/03 09:58:42;;;;;;;;;4.67;2.00;;;;;13.68;67.26;101359.94;5006909;28;45905;-84
2022/01/03 10:01:09;;;;;;;;;2.00;1.00;;;;;13.95;67.40;101391.72;5011713;28;45826;-84
2022/01/03 10:03:35;;;;;;;;;2.33;2.00;;;;;13.73;67.10;101352.53;5001378;28;45414;-84
2022/01/03 10:06:00;;;;;;;;;7.00;2.67;;;;;14.01;66.84;101393.25;5011096;28;45573;-83
2022/01/03 10:08:26;;;;;;;;;3.33;2.00;;;;;13.65;67.01;101330.63;5002112;28;45506;-82
2022/01/03 10:10:52;;;;;;;;;6.00;2.33;;;;;13.72;67.16;101342.78;5000996;28;45577;-82
2022/01/03 10:13:18;;;;;;;;;3.33;2.00;;;;;13.98;67.03;101394.28;5004373;28;45601;-82
2022/01/03 10:15:43;;;;;;;;;2.00;1.67;;;;;13.88;66.84;101375.09;4999758;28;45440;-82
2022/01/03 10:18:20;;;;;;;;;1.33;1.33;;;;;13.64;66.76;101319.97;4998071;28;45419;-85
2022/01/03 10:20:47;;;;;;;;;2.00;1.00;;;;;13.99;67.13;101377.22;5006519;28;45651;-84
2022/01/03 10:23:15;;;;;;;;;1.00;1.00;;;;;14.00;66.83;101370.94;5004557;28;45460;-84
2022/01/03 10:25:42;;;;;;;;;8.00;3.00;;;;;13.80;66.99;101346.91;5003204;28;45356;-84
2022/01/03 10:28:07;;;;;;;;;2.00;1.00;;;;;13.79;66.67;101338.00;5007365;28;45426;-85
2022/01/03 10:30:38;;;;;;;;;1.67;0.33;;;;;13.99;66.66;101366.50;5002040;28;45430;-85
2022/01/03 10:33:12;;;;;;;;;3.00;1.00;;;;;13.93;66.50;101351.59;5005045;28;45937;-85
2022/01/03 10:35:58;;;;;;;;;1.33;1.33;;;;;13.63;67.01;101291.44;5004589;28;45491;-84
2022/01/03 10:38:45;;;;;;;;;8.00;3.00;;;;;14.01;66.78;101353.91;5001583;28;47329;-84
2022/01/03 10:41:14;;;;;;;;;4.67;2.33;;;;;13.85;66.70;101329.66;4999939;28;45542;-83
2022/01/03 10:43:41;;;;;;;;;4.33;1.67;;;;;13.79;66.77;101310.31;5007182;28;45551;-84
2022/01/03 10:46:37;;;;;;;;;3.33;1.00;;;;;14.01;66.38;101350.38;5001224;28;45355;-83
2022/01/03 10:49:13;;;;;;;;;4.00;4.00;;;;;14.00;66.32;101338.78;5019302;28;45706;-84
2022/01/03 10:51:40;;;;;;;;;4.00;2.67;;;;;13.73;66.49;101288.25;5002633;28;45603;-84
2022/01/03 10:54:11;;;;;;;;;3.00;1.00;;;;;14.02;66.53;101320.78;5007740;28;45377;-84
2022/01/03 10:56:40;;;;;;;;;3.00;2.33;;;;;14.06;66.47;101329.56;5001176;28;45290;-84
2022/01/03 10:59:14;;;;;;;;;4.33;2.67;;;;;14.10;66.24;101328.47;5003717;28;46383;-84
2022/01/03 11:01:41;;;;;;;;;6.00;2.00;;;;;13.84;65.95;101270.81;5005125;28;45779;-84
2022/01/03 11:04:07;;;;;;;;;6.33;2.67;;;;;14.12;66.24;101302.47;5004538;28;45434;-85
2022/01/03 11:11:44;;;;;;;;;2.00;2.00;;;;;14.22;66.04;101302.88;5002224;28;45458;-83
2022/01/03 11:14:39;;;;;;;;;3.00;1.67;;;;;14.02;65.57;101269.00;5002425;28;45356;-83
2022/01/03 11:17:25;;;;;;;;;7.00;3.00;;;;;14.22;65.83;101303.72;5008603;28;45381;-84
2022/01/03 11:19:51;;;;;;;;;4.00;2.00;;;;;14.32;65.76;101305.00;5003438;28;46114;-84
2022/01/03 11:22:41;;;;;;;;;3.00;1.00;;;;;14.29;65.85;101290.88;5002225;28;45428;-84
2022/01/03 11:25:08;;;;;;;;;3.00;3.00;;;;;14.34;65.47;101289.69;4993968;28;45502;-84
2022/01/03 11:27:38;;;;;;;;;2.00;1.33;;;;;14.29;65.47;101278.34;5000776;28;45654;-84
2022/01/03 11:30:06;;;;;;;;;1.00;1.00;;;;;14.27;65.37;101277.56;5002561;28;46058;-84
2022/01/03 11:32:33;;;;;;;;;1.00;1.00;;;;;13.96;65.51;101203.19;4997263;28;45404;-84
2022/01/03 11:35:00;;;;;;;;;1.00;1.00;;;;;14.40;65.26;101267.09;5006054;28;45333;-84
2022/01/03 11:37:30;;;;;;;;;4.33;3.67;;;;;14.47;65.45;101268.50;4998736;28;45594;-82
2022/01/03 11:39:58;;;;;;;;;3.67;1.00;;;;;14.42;65.47;101234.81;4992239;28;47135;-83